Henrietta, Ohio
Current Conditions -  °F | °C
As of 7:53 AM on Thursday 30 Oct 2014 (Local Time) from KLPR Reporting Station
Overcast Overcast  
Wind Chill: 38°   Ceiling: 4300
Heat Index: 41°   Visibility: 10mi
Dew Point: 39°   Wind: 5mph
Humidity: 93%   Direction: 280°W
Pressure: 30.12"   Gusts: NA
Location:  41.3705°N, 82.2583°W
Report Text: KLPR 301153Z AUTO 28004KT 10SM FEW023 FEW030 OVC043 05/04 A3012 RMK AO2 SLP204 T00500039 10050 20044 51009 TSNO
Loading
Personal Weather Stations






























Interactive Weather Map
Tropical Storm Tracking
New forecast layout! Learn more

10-Day Weather Forecast

Advertisements
Track Severe Weather on mobile